Terminal Aerodrome Forecast
Issued by NWS

Home | Current Version | Previous Version | Text Only | Print | Product List | Glossary Off
Versions: 1 2 3 4 5 6 7 8 9 10 11 12 13 14 15 16 17 18 19 20 21 22 23 24 25 26 27 28 29 30 31 32 33 34 35 36

668
FTUS43 KDVN 291730
TAFBRL
TAF
KBRL 291730Z 2918/3018 05007KT P6SM OVC015
     FM292300 08008KT P6SM OVC025
     FM300800 08014KT P6SM VCSH OVC025
     FM301200 08017G23KT 3SM -RA BR OVC008=

USA.gov is the U.S. government's official web portal to all federal, state and local government web resources and services.